createdAt,value
2023-04-30T00:00:25.812Z,13.22
2023-04-30T00:02:52.387Z,13.09
2023-04-30T00:05:19.138Z,13.10
2023-04-30T00:07:45.626Z,13.00
2023-04-30T00:10:12.291Z,13.02
2023-04-30T00:12:38.971Z,13.08
2023-04-30T00:15:06.046Z,13.00
2023-04-30T00:17:32.590Z,12.97
2023-04-30T00:19:59.055Z,12.97
2023-04-30T00:22:25.604Z,13.09
2023-04-30T00:24:52.276Z,13.23
2023-04-30T00:27:18.770Z,13.23
2023-04-30T00:29:45.407Z,13.26
2023-04-30T00:32:11.917Z,13.20
2023-04-30T00:34:38.462Z,13.34
2023-04-30T00:37:04.969Z,13.30
2023-04-30T00:39:31.402Z,13.21
2023-04-30T00:41:58.030Z,13.23
2023-04-30T00:44:24.565Z,13.15
2023-04-30T00:46:51.082Z,12.94
2023-04-30T00:49:17.768Z,12.94
2023-04-30T00:51:45.663Z,12.88
2023-04-30T00:54:12.746Z,12.85
2023-04-30T00:56:39.303Z,12.79
2023-04-30T00:59:05.928Z,12.66
2023-04-30T01:01:32.927Z,12.72
2023-04-30T01:04:01.063Z,12.71
2023-04-30T01:06:28.310Z,12.74
2023-04-30T01:08:55.133Z,12.70
2023-04-30T01:11:26.407Z,12.51
2023-04-30T01:14:03.825Z,12.53
2023-04-30T01:16:36.427Z,12.64
2023-04-30T01:19:11.837Z,12.54
2023-04-30T01:21:42.224Z,12.46
2023-04-30T01:24:30.356Z,12.40
2023-04-30T01:27:08.350Z,12.26
2023-04-30T01:29:36.655Z,12.26
2023-04-30T01:32:03.708Z,12.27
2023-04-30T01:34:30.229Z,12.34
2023-04-30T01:37:05.550Z,12.34
2023-04-30T01:40:08.637Z,12.50
2023-04-30T01:43:06.192Z,12.49
2023-04-30T01:45:32.640Z,12.50
2023-04-30T01:48:14.080Z,12.50
2023-04-30T01:50:48.508Z,12.68
2023-04-30T01:53:21.829Z,12.51
2023-04-30T01:55:48.176Z,12.65
2023-04-30T01:58:16.624Z,12.71
2023-04-30T02:00:43.196Z,12.76
2023-04-30T02:03:09.812Z,12.70
2023-04-30T02:05:36.379Z,12.66
2023-04-30T02:08:03.372Z,12.63
2023-04-30T02:10:30.649Z,12.73
2023-04-30T02:12:57.193Z,12.67
2023-04-30T02:15:23.895Z,12.67
2023-04-30T02:17:50.695Z,12.67
2023-04-30T02:20:17.268Z,12.81
2023-04-30T02:22:43.817Z,12.70
2023-04-30T02:25:12.379Z,12.77
2023-04-30T02:27:38.987Z,12.73
2023-04-30T02:30:06.494Z,12.71
2023-04-30T02:32:33.208Z,12.69
2023-04-30T02:34:59.795Z,12.59
2023-04-30T02:37:26.342Z,12.59
2023-04-30T02:39:54.627Z,12.60
2023-04-30T02:42:21.296Z,12.58
2023-04-30T02:44:47.795Z,12.66
2023-04-30T02:47:14.252Z,12.70
2023-04-30T02:49:40.824Z,12.82
2023-04-30T02:52:09.597Z,12.82
2023-04-30T02:54:36.637Z,12.74
2023-04-30T02:57:03.421Z,12.77
2023-04-30T02:59:29.967Z,12.69
2023-04-30T03:01:56.489Z,12.81
2023-04-30T03:04:22.970Z,12.77
2023-04-30T03:06:50.764Z,12.76
2023-04-30T03:09:20.079Z,12.70
2023-04-30T03:11:46.842Z,12.63
2023-04-30T03:14:13.340Z,12.77
2023-04-30T03:16:39.909Z,12.80
2023-04-30T03:19:06.581Z,12.68
2023-04-30T03:21:33.164Z,12.62
2023-04-30T03:23:59.700Z,12.75
2023-04-30T03:26:26.238Z,12.67
2023-04-30T03:28:53.016Z,12.63
2023-04-30T03:31:19.531Z,12.57
2023-04-30T03:33:46.077Z,12.64
2023-04-30T03:36:13.218Z,12.70
2023-04-30T03:38:41.782Z,12.75
2023-04-30T03:41:08.344Z,12.64
2023-04-30T03:43:34.773Z,12.53
2023-04-30T03:46:01.307Z,12.54
2023-04-30T03:48:27.818Z,12.59
2023-04-30T03:50:54.272Z,12.56
2023-04-30T03:53:20.694Z,12.60
2023-04-30T03:55:49.299Z,12.56
2023-04-30T03:58:15.860Z,12.52
2023-04-30T04:00:42.490Z,12.52
2023-04-30T04:03:09.017Z,12.64
2023-04-30T04:05:35.539Z,12.64
2023-04-30T04:08:02.067Z,12.64
2023-04-30T04:10:28.896Z,12.75
2023-04-30T04:12:55.498Z,12.67
2023-04-30T04:15:22.049Z,12.60
2023-04-30T04:17:48.711Z,12.51
2023-04-30T04:20:15.327Z,12.53
2023-04-30T04:22:41.804Z,12.58
2023-04-30T04:25:08.764Z,12.49
2023-04-30T04:27:35.495Z,12.62
2023-04-30T04:30:05.481Z,12.61
2023-04-30T04:32:32.770Z,12.61
2023-04-30T04:34:59.345Z,12.61
2023-04-30T04:37:25.807Z,12.60
2023-04-30T04:39:52.768Z,12.63
2023-04-30T04:42:20.528Z,12.68
2023-04-30T04:44:47.066Z,12.68
2023-04-30T04:47:13.548Z,12.68
2023-04-30T04:49:39.962Z,12.67
2023-04-30T04:52:06.607Z,12.65
2023-04-30T04:54:33.462Z,12.68
2023-04-30T04:56:59.909Z,12.71
2023-04-30T04:59:26.689Z,12.76
2023-04-30T05:01:53.253Z,12.85
2023-04-30T05:04:19.808Z,12.89
2023-04-30T05:06:46.892Z,12.92
2023-04-30T05:09:13.477Z,12.95
2023-04-30T05:11:41.566Z,12.93
2023-04-30T05:14:08.184Z,13.07
2023-04-30T05:16:34.716Z,13.04
2023-04-30T05:19:01.256Z,13.07
2023-04-30T05:21:29.793Z,13.07
2023-04-30T05:23:56.342Z,13.05
2023-04-30T05:26:24.343Z,13.13
2023-04-30T05:28:52.331Z,13.16
2023-04-30T05:31:20.808Z,13.20
2023-04-30T05:33:47.666Z,13.29
2023-04-30T05:36:14.608Z,13.15
2023-04-30T05:38:41.402Z,13.00
2023-04-30T05:41:08.085Z,12.81
2023-04-30T05:43:34.693Z,12.99
2023-04-30T05:46:01.252Z,13.07
2023-04-30T05:48:27.796Z,13.01
2023-04-30T05:50:54.367Z,13.07
2023-04-30T05:53:20.825Z,13.28
2023-04-30T05:55:47.406Z,13.33
2023-04-30T05:58:13.883Z,13.35
2023-04-30T06:00:40.524Z,13.48
2023-04-30T06:03:07.798Z,13.56
2023-04-30T06:05:34.372Z,13.69
2023-04-30T06:08:00.890Z,13.65
2023-04-30T06:10:27.522Z,13.71
2023-04-30T06:12:54.060Z,13.69
2023-04-30T06:15:20.568Z,13.65
2023-04-30T06:17:47.148Z,13.76
2023-04-30T06:20:14.819Z,14.02
2023-04-30T06:22:41.315Z,14.10
2023-04-30T06:25:08.305Z,13.97
2023-04-30T06:27:35.011Z,14.01
2023-04-30T06:30:01.487Z,14.09
2023-04-30T06:32:27.982Z,14.05
2023-04-30T06:34:55.826Z,14.20
2023-04-30T06:37:22.345Z,14.34
2023-04-30T06:39:49.667Z,14.38
2023-04-30T06:42:16.148Z,14.55
2023-04-30T06:44:42.807Z,14.61
2023-04-30T06:47:09.278Z,14.69
2023-04-30T06:49:35.732Z,14.91
2023-04-30T06:52:03.165Z,14.94
2023-04-30T06:54:29.633Z,15.15
2023-04-30T06:56:56.260Z,15.25
2023-04-30T06:59:22.803Z,15.37
2023-04-30T07:01:49.352Z,15.45
2023-04-30T07:04:16.244Z,15.73
2023-04-30T07:06:42.943Z,15.76
2023-04-30T07:09:09.685Z,15.71
2023-04-30T07:11:36.625Z,16.15
2023-04-30T07:14:03.186Z,16.10
2023-04-30T07:16:29.804Z,15.90
2023-04-30T07:18:56.401Z,15.67
2023-04-30T07:21:23.757Z,16.15
2023-04-30T07:23:51.630Z,16.28
2023-04-30T07:26:18.495Z,16.25
2023-04-30T07:28:48.083Z,16.17
2023-04-30T07:31:14.606Z,16.51
2023-04-30T07:33:41.327Z,16.42
2023-04-30T07:36:07.980Z,16.70
2023-04-30T07:38:34.467Z,17.05
2023-04-30T07:41:01.803Z,17.09
2023-04-30T07:43:29.965Z,16.85
2023-04-30T07:45:57.704Z,16.96
2023-04-30T07:48:24.274Z,16.95
2023-04-30T07:50:52.741Z,17.04
2023-04-30T07:53:19.760Z,17.10
2023-04-30T07:55:46.568Z,17.16
2023-04-30T07:58:13.037Z,17.05
2023-04-30T08:00:39.472Z,17.34
2023-04-30T08:03:06.013Z,17.62
2023-04-30T08:05:32.492Z,17.61
2023-04-30T08:07:58.942Z,17.56
2023-04-30T08:10:26.318Z,17.41
2023-04-30T08:12:53.218Z,17.41
2023-04-30T08:15:21.938Z,17.60
2023-04-30T08:17:51.751Z,17.60
2023-04-30T08:20:18.893Z,17.90
2023-04-30T08:22:46.601Z,18.15
2023-04-30T08:25:13.212Z,18.49
2023-04-30T08:27:39.749Z,18.60
2023-04-30T08:30:07.663Z,18.74
2023-04-30T08:32:37.845Z,18.86
2023-04-30T08:35:05.637Z,18.84
2023-04-30T08:37:32.387Z,18.55
2023-04-30T08:39:59.085Z,18.59
2023-04-30T08:42:30.684Z,18.46
2023-04-30T08:45:00.552Z,18.42
2023-04-30T08:47:28.352Z,18.36
2023-04-30T08:49:55.147Z,18.38
2023-04-30T08:52:22.284Z,18.25
2023-04-30T08:54:51.085Z,18.11
2023-04-30T08:57:18.523Z,18.16
2023-04-30T08:59:47.301Z,17.98
2023-04-30T09:02:14.362Z,17.90
2023-04-30T09:04:41.032Z,18.45
2023-04-30T09:07:09.560Z,18.63
2023-04-30T09:09:39.666Z,19.33
2023-04-30T09:12:20.619Z,19.72
2023-04-30T09:15:04.956Z,20.27
2023-04-30T09:17:32.772Z,20.51
2023-04-30T09:20:13.535Z,20.26
2023-04-30T09:22:41.922Z,20.42
2023-04-30T09:25:09.933Z,20.39
2023-04-30T09:27:36.488Z,20.40
2023-04-30T09:30:03.304Z,20.61
2023-04-30T09:32:29.805Z,21.11
2023-04-30T09:34:56.423Z,21.95
2023-04-30T09:37:38.228Z,21.62
2023-04-30T09:40:05.285Z,20.89
2023-04-30T09:42:31.904Z,21.75
2023-04-30T09:44:58.504Z,22.01
2023-04-30T09:47:30.004Z,22.09
2023-04-30T09:49:56.648Z,22.40
2023-04-30T09:52:23.307Z,23.63
2023-04-30T09:54:49.775Z,23.29
2023-04-30T09:57:16.690Z,23.37
2023-04-30T09:59:47.188Z,24.04
2023-04-30T10:02:20.090Z,24.39
2023-04-30T10:04:49.143Z,23.68
2023-04-30T10:07:19.438Z,23.66
2023-04-30T10:09:54.641Z,24.03
2023-04-30T10:12:27.151Z,23.15
2023-04-30T10:15:02.949Z,23.87
2023-04-30T10:17:33.804Z,23.97
2023-04-30T10:20:06.440Z,23.63
2023-04-30T10:22:35.446Z,24.04
2023-04-30T10:25:03.032Z,23.52
2023-04-30T10:27:30.530Z,24.23
2023-04-30T10:29:57.989Z,24.90
2023-04-30T10:32:32.568Z,25.00
2023-04-30T10:35:45.310Z,25.36
2023-04-30T10:38:33.005Z,26.71
2023-04-30T10:41:04.266Z,26.67
2023-04-30T10:43:31.491Z,26.87
2023-04-30T10:45:58.801Z,26.52
2023-04-30T10:48:27.056Z,26.37
2023-04-30T10:50:57.268Z,25.48
2023-04-30T10:53:26.332Z,24.90
2023-04-30T10:56:12.241Z,25.20
2023-04-30T10:58:41.860Z,26.26
2023-04-30T11:01:17.880Z,25.66
2023-04-30T11:04:08.504Z,26.45
2023-04-30T11:07:10.667Z,27.38
2023-04-30T11:09:43.679Z,27.05
2023-04-30T11:12:15.637Z,25.42
2023-04-30T11:14:44.641Z,24.96
2023-04-30T11:17:13.773Z,24.58
2023-04-30T11:19:48.163Z,25.04
2023-04-30T11:22:19.671Z,24.23
2023-04-30T11:24:52.983Z,24.00
2023-04-30T11:27:27.071Z,23.80
2023-04-30T11:29:55.285Z,23.67
2023-04-30T11:32:23.807Z,23.81
2023-04-30T11:34:50.775Z,23.46
2023-04-30T11:37:37.802Z,23.14
2023-04-30T11:40:07.549Z,22.69
2023-04-30T11:42:35.020Z,22.51
2023-04-30T11:45:09.990Z,22.39
2023-04-30T11:47:48.210Z,22.15
2023-04-30T11:50:19.630Z,21.35
2023-04-30T11:52:50.845Z,21.55
2023-04-30T11:55:19.190Z,21.29
2023-04-30T11:57:49.278Z,21.50
2023-04-30T12:00:18.365Z,21.41
2023-04-30T12:02:47.796Z,21.11
2023-04-30T12:05:19.007Z,21.39
2023-04-30T12:07:51.146Z,21.42
2023-04-30T12:10:21.024Z,21.37
2023-04-30T12:12:51.307Z,21.72
2023-04-30T12:15:23.245Z,21.73
2023-04-30T12:17:49.797Z,21.68
2023-04-30T12:20:16.507Z,21.76
2023-04-30T12:22:44.328Z,22.20
2023-04-30T12:25:19.470Z,22.06
2023-04-30T12:27:48.032Z,22.09
2023-04-30T12:30:15.149Z,21.70
2023-04-30T12:32:46.546Z,21.60
2023-04-30T12:35:19.730Z,21.34
2023-04-30T12:37:52.264Z,20.87
2023-04-30T12:40:20.600Z,21.01
2023-04-30T12:42:47.875Z,20.79
2023-04-30T12:45:45.167Z,20.71
2023-04-30T12:48:11.826Z,20.79
2023-04-30T12:50:39.321Z,20.63
2023-04-30T12:53:07.558Z,20.76
2023-04-30T12:55:35.275Z,20.72
2023-04-30T12:58:06.305Z,20.44
2023-04-30T13:00:45.091Z,20.26
2023-04-30T13:03:16.740Z,20.31
2023-04-30T13:05:48.421Z,20.18
2023-04-30T13:08:15.470Z,19.72
2023-04-30T13:10:42.302Z,19.71
2023-04-30T13:13:08.796Z,19.83
2023-04-30T13:15:35.340Z,19.86
2023-04-30T13:18:02.092Z,20.02
2023-04-30T13:20:28.549Z,20.09
2023-04-30T13:22:55.084Z,20.17
2023-04-30T13:25:22.250Z,20.37
2023-04-30T13:27:48.768Z,20.64
2023-04-30T13:30:15.288Z,21.02
2023-04-30T13:32:43.038Z,21.14
2023-04-30T13:35:10.240Z,21.54
2023-04-30T13:37:36.799Z,21.62
2023-04-30T13:40:04.133Z,21.46
2023-04-30T13:42:30.934Z,21.28
2023-04-30T13:44:57.737Z,21.09
2023-04-30T13:47:24.380Z,21.00
2023-04-30T13:49:51.060Z,21.20
2023-04-30T13:52:17.557Z,21.24
2023-04-30T13:54:44.097Z,21.06
2023-04-30T13:57:10.621Z,21.03
2023-04-30T13:59:37.096Z,21.10
2023-04-30T14:02:03.674Z,20.95
2023-04-30T14:04:31.337Z,20.74
2023-04-30T14:06:57.987Z,20.23
2023-04-30T14:09:24.562Z,20.14
2023-04-30T14:11:51.423Z,20.09
2023-04-30T14:14:18.003Z,20.09
2023-04-30T14:16:44.936Z,20.01
2023-04-30T14:19:11.671Z,19.87
2023-04-30T14:21:38.155Z,19.71
2023-04-30T14:24:05.012Z,19.61
2023-04-30T14:26:31.556Z,19.51
2023-04-30T14:28:58.178Z,19.44
2023-04-30T14:31:24.640Z,19.42
2023-04-30T14:33:51.136Z,19.37
2023-04-30T14:36:17.772Z,19.41
2023-04-30T14:38:44.243Z,19.28
2023-04-30T14:41:10.778Z,19.52
2023-04-30T14:43:37.270Z,19.40
2023-04-30T14:46:04.131Z,19.38
2023-04-30T14:48:30.632Z,19.47
2023-04-30T14:50:57.190Z,19.27
2023-04-30T14:53:23.682Z,19.27
2023-04-30T14:55:50.475Z,19.31
2023-04-30T14:58:16.914Z,19.14
2023-04-30T15:00:43.368Z,19.14
2023-04-30T15:03:09.909Z,18.99
2023-04-30T15:05:36.594Z,18.95
2023-04-30T15:08:03.282Z,19.08
2023-04-30T15:10:29.767Z,18.98
2023-04-30T15:12:56.238Z,18.93
2023-04-30T15:15:27.835Z,18.93
2023-04-30T15:17:56.441Z,18.85
2023-04-30T15:20:23.061Z,18.85
2023-04-30T15:22:54.847Z,18.85
2023-04-30T15:25:24.601Z,18.82
2023-04-30T15:27:54.166Z,18.78
2023-04-30T15:30:21.688Z,18.77
2023-04-30T15:32:50.086Z,18.78
2023-04-30T15:35:17.123Z,18.81
2023-04-30T15:37:44.802Z,18.76
2023-04-30T15:40:15.171Z,18.88
2023-04-30T15:42:42.013Z,18.86
2023-04-30T15:45:09.769Z,18.90
2023-04-30T15:47:38.769Z,18.91
2023-04-30T15:50:06.090Z,18.87
2023-04-30T15:52:32.585Z,18.96
2023-04-30T15:54:59.102Z,18.85
2023-04-30T15:57:25.730Z,18.69
2023-04-30T15:59:52.227Z,18.60
2023-04-30T16:02:18.864Z,18.76
2023-04-30T16:04:45.411Z,18.58
2023-04-30T16:07:12.065Z,18.61
2023-04-30T16:09:39.072Z,18.63
2023-04-30T16:12:05.801Z,18.72
2023-04-30T16:14:32.295Z,18.81
2023-04-30T16:16:58.792Z,18.77
2023-04-30T16:19:25.423Z,18.79
2023-04-30T16:21:51.915Z,18.57
2023-04-30T16:24:18.392Z,18.74
2023-04-30T16:26:44.869Z,18.81
2023-04-30T16:29:11.391Z,18.78
2023-04-30T16:31:38.193Z,18.74
2023-04-30T16:34:04.740Z,18.65
2023-04-30T16:36:31.189Z,18.61
2023-04-30T16:38:57.673Z,18.69
2023-04-30T16:41:24.605Z,18.80
2023-04-30T16:43:51.280Z,18.74
2023-04-30T16:46:18.820Z,18.67
2023-04-30T16:48:45.462Z,18.68
2023-04-30T16:51:11.952Z,18.63
2023-04-30T16:53:38.504Z,18.67
2023-04-30T16:56:05.362Z,18.65
2023-04-30T16:58:32.017Z,18.61
2023-04-30T17:00:59.142Z,18.60
2023-04-30T17:03:25.877Z,18.67
2023-04-30T17:05:53.423Z,18.61
2023-04-30T17:08:21.115Z,18.60
2023-04-30T17:10:47.696Z,18.52
2023-04-30T17:13:14.808Z,18.55
2023-04-30T17:15:41.387Z,18.62
2023-04-30T17:18:09.615Z,18.55
2023-04-30T17:20:36.461Z,18.52
2023-04-30T17:23:03.571Z,18.50
2023-04-30T17:25:31.806Z,18.32
2023-04-30T17:28:01.561Z,18.27
2023-04-30T17:30:28.960Z,18.26
2023-04-30T17:32:56.345Z,18.13
2023-04-30T17:35:22.979Z,18.23
2023-04-30T17:37:49.432Z,18.14
2023-04-30T17:40:16.045Z,18.12
2023-04-30T17:42:42.549Z,18.06
2023-04-30T17:45:09.400Z,18.11
2023-04-30T17:47:35.942Z,17.96
2023-04-30T17:50:04.871Z,17.94
2023-04-30T17:52:33.522Z,17.99
2023-04-30T17:55:00.040Z,17.87
2023-04-30T17:57:26.559Z,17.83
2023-04-30T17:59:53.110Z,17.80
2023-04-30T18:02:19.720Z,17.72
2023-04-30T18:04:46.269Z,17.64
2023-04-30T18:07:12.788Z,17.65
2023-04-30T18:09:39.220Z,17.66
2023-04-30T18:12:05.832Z,17.63
2023-04-30T18:14:32.590Z,17.56
2023-04-30T18:16:59.382Z,17.56
2023-04-30T18:19:25.943Z,17.52
2023-04-30T18:21:56.723Z,17.51
2023-04-30T18:24:27.816Z,17.53
2023-04-30T18:26:55.273Z,17.49
2023-04-30T18:29:21.890Z,17.53
2023-04-30T18:31:48.729Z,17.53
2023-04-30T18:34:15.796Z,17.36
2023-04-30T18:36:45.324Z,17.42
2023-04-30T18:39:12.414Z,17.34
2023-04-30T18:41:38.909Z,17.36
2023-04-30T18:44:05.825Z,17.29
2023-04-30T18:46:32.375Z,17.20
2023-04-30T18:48:58.864Z,17.15
2023-04-30T18:51:25.542Z,17.20
2023-04-30T18:53:52.254Z,17.16
2023-04-30T18:56:18.806Z,17.22
2023-04-30T18:58:46.748Z,17.43
2023-04-30T19:01:16.304Z,17.39
2023-04-30T19:03:42.957Z,17.27
2023-04-30T19:06:09.841Z,17.17
2023-04-30T19:08:36.816Z,17.21
2023-04-30T19:11:03.561Z,17.07
2023-04-30T19:13:30.134Z,16.98
2023-04-30T19:15:56.714Z,16.98
2023-04-30T19:18:24.557Z,16.93
2023-04-30T19:21:09.440Z,16.89
2023-04-30T19:23:36.006Z,16.91
2023-04-30T19:26:03.011Z,17.02
2023-04-30T19:28:29.488Z,16.95
2023-04-30T19:30:56.500Z,16.94
2023-04-30T19:33:24.641Z,16.95
2023-04-30T19:35:53.494Z,16.90
2023-04-30T19:38:23.635Z,16.93
2023-04-30T19:40:53.151Z,16.86
2023-04-30T19:43:21.015Z,16.88
2023-04-30T19:45:51.029Z,16.82
2023-04-30T19:48:17.694Z,16.93
2023-04-30T19:50:46.792Z,16.84
2023-04-30T19:53:17.249Z,16.84
2023-04-30T19:55:44.188Z,16.78
2023-04-30T19:58:10.714Z,16.72
2023-04-30T20:00:38.625Z,16.71
2023-04-30T20:03:05.490Z,16.63
2023-04-30T20:05:34.161Z,16.55
2023-04-30T20:08:04.575Z,16.38
2023-04-30T20:10:31.852Z,16.54
2023-04-30T20:12:58.391Z,16.56
2023-04-30T20:15:25.133Z,16.55
2023-04-30T20:17:52.944Z,16.52
2023-04-30T20:20:20.987Z,16.47
2023-04-30T20:22:50.908Z,16.31
2023-04-30T20:25:17.900Z,16.24
2023-04-30T20:27:44.579Z,16.17
2023-04-30T20:30:12.370Z,16.27
2023-04-30T20:32:39.902Z,16.32
2023-04-30T20:35:07.688Z,16.34
2023-04-30T20:37:35.391Z,16.24
2023-04-30T20:40:02.313Z,16.27
2023-04-30T20:42:29.046Z,16.28
2023-04-30T20:44:56.370Z,16.28
2023-04-30T20:47:23.868Z,16.12
2023-04-30T20:49:51.194Z,16.03
2023-04-30T20:52:18.706Z,15.93
2023-04-30T20:54:45.899Z,15.91
2023-04-30T20:57:12.844Z,15.88
2023-04-30T20:59:39.324Z,15.96
2023-04-30T21:02:05.855Z,15.92
2023-04-30T21:04:32.355Z,15.84
2023-04-30T21:06:58.854Z,15.88
2023-04-30T21:09:25.598Z,15.86
2023-04-30T21:11:52.329Z,15.80
2023-04-30T21:14:18.946Z,15.76
2023-04-30T21:16:45.526Z,15.73
2023-04-30T21:19:12.151Z,15.71
2023-04-30T21:21:38.664Z,15.66
2023-04-30T21:24:05.629Z,15.60
2023-04-30T21:26:32.240Z,15.57
2023-04-30T21:28:58.854Z,15.57
2023-04-30T21:31:25.808Z,15.59
2023-04-30T21:33:52.540Z,15.53
2023-04-30T21:36:20.296Z,15.46
2023-04-30T21:38:46.754Z,15.54
2023-04-30T21:41:14.465Z,15.46
2023-04-30T21:43:44.258Z,15.55
2023-04-30T21:46:11.100Z,15.49
2023-04-30T21:48:38.409Z,15.45
2023-04-30T21:51:15.350Z,15.49
2023-04-30T21:53:42.399Z,15.47
2023-04-30T21:56:10.917Z,15.49
2023-04-30T21:58:38.564Z,15.43
2023-04-30T22:01:05.531Z,15.36
2023-04-30T22:03:32.750Z,15.39
2023-04-30T22:05:59.607Z,15.32
2023-04-30T22:08:26.221Z,15.34
2023-04-30T22:11:00.518Z,15.28
2023-04-30T22:13:28.435Z,15.21
2023-04-30T22:15:55.486Z,15.18
2023-04-30T22:18:22.921Z,15.23
2023-04-30T22:20:50.996Z,15.27
2023-04-30T22:23:18.772Z,15.24
2023-04-30T22:25:45.258Z,15.16
2023-04-30T22:28:11.925Z,15.15
2023-04-30T22:30:39.604Z,15.06
2023-04-30T22:33:06.601Z,15.06
2023-04-30T22:35:36.450Z,15.12
2023-04-30T22:38:03.487Z,15.09
2023-04-30T22:40:32.064Z,15.14
2023-04-30T22:42:59.473Z,15.16
2023-04-30T22:45:26.942Z,15.21
2023-04-30T22:47:54.336Z,15.28
2023-04-30T22:50:21.056Z,15.15
2023-04-30T22:52:47.832Z,15.06
2023-04-30T22:55:14.547Z,15.04
2023-04-30T22:57:41.205Z,15.14
2023-04-30T23:00:09.652Z,15.15
2023-04-30T23:02:36.792Z,15.05
2023-04-30T23:05:04.035Z,15.01
2023-04-30T23:07:30.625Z,14.99
2023-04-30T23:09:57.458Z,14.99
2023-04-30T23:12:24.185Z,15.03
2023-04-30T23:14:51.012Z,15.03
2023-04-30T23:17:18.106Z,14.99
2023-04-30T23:19:44.706Z,15.04
2023-04-30T23:22:11.165Z,15.03
2023-04-30T23:24:38.616Z,14.89
2023-04-30T23:27:05.117Z,14.90
2023-04-30T23:29:32.244Z,14.85
2023-04-30T23:31:59.481Z,14.84
2023-04-30T23:34:26.140Z,14.79
2023-04-30T23:36:52.645Z,14.84
2023-04-30T23:39:19.243Z,14.77
2023-04-30T23:41:45.765Z,14.64
2023-04-30T23:44:13.435Z,14.60
2023-04-30T23:46:41.484Z,14.50
2023-04-30T23:49:09.959Z,14.54
2023-04-30T23:51:36.937Z,14.43
2023-04-30T23:54:04.512Z,14.43
2023-04-30T23:56:31.551Z,14.46
2023-04-30T23:58:58.085Z,14.42
